createdAt,value
2023-06-10T00:01:21.657Z,100934.53
2023-06-10T00:03:49.485Z,100937.56
2023-06-10T00:06:17.095Z,100932.34
2023-06-10T00:08:44.427Z,100932.00
2023-06-10T00:11:11.841Z,100927.66
2023-06-10T00:13:39.119Z,100923.53
2023-06-10T00:16:06.504Z,100943.06
2023-06-10T00:18:33.922Z,100924.00
2023-06-10T00:21:05.513Z,100921.47
2023-06-10T00:23:38.855Z,100927.75
2023-06-10T00:26:06.480Z,100917.22
2023-06-10T00:28:33.943Z,100922.78
2023-06-10T00:31:02.085Z,100917.84
2023-06-10T00:33:29.407Z,100918.91
2023-06-10T00:35:56.600Z,100923.38
2023-06-10T00:38:24.401Z,100934.00
2023-06-10T00:40:51.648Z,100926.16
2023-06-10T00:43:18.968Z,100924.44
2023-06-10T00:45:46.468Z,100921.22
2023-06-10T00:48:14.471Z,100917.81
2023-06-10T00:50:41.924Z,100918.16
2023-06-10T00:53:09.556Z,100921.03
2023-06-10T00:55:37.034Z,100919.59
2023-06-10T00:58:05.022Z,100922.63
2023-06-10T01:00:32.327Z,100925.28
2023-06-10T01:02:59.834Z,100920.06
2023-06-10T01:05:27.390Z,100922.09
2023-06-10T01:08:03.490Z,100921.25
2023-06-10T01:10:32.082Z,100918.94
2023-06-10T01:13:09.362Z,100930.72
2023-06-10T01:15:36.969Z,100938.94
2023-06-10T01:18:16.221Z,100933.84
2023-06-10T01:20:45.157Z,100930.34
2023-06-10T01:23:12.751Z,100938.31
2023-06-10T01:25:45.227Z,100930.56
2023-06-10T01:28:28.421Z,100933.47
2023-06-10T01:31:18.092Z,100940.69
2023-06-10T01:33:48.696Z,100932.84
2023-06-10T01:36:17.971Z,100936.47
2023-06-10T01:38:47.043Z,100933.06
2023-06-10T01:41:15.374Z,100939.44
2023-06-10T01:43:44.837Z,100938.00
2023-06-10T01:46:12.430Z,100931.94
2023-06-10T01:48:40.006Z,100940.97
2023-06-10T01:51:07.461Z,100939.25
2023-06-10T01:53:34.878Z,100934.22
2023-06-10T01:56:03.091Z,100937.06
2023-06-10T01:58:30.536Z,100939.09
2023-06-10T02:00:58.329Z,100942.94
2023-06-10T02:03:25.767Z,100935.09
2023-06-10T02:05:53.040Z,100936.06
2023-06-10T02:08:20.482Z,100936.16
2023-06-10T02:10:48.390Z,100933.75
2023-06-10T02:13:15.704Z,100934.81
2023-06-10T02:15:43.118Z,100941.19
2023-06-10T02:18:12.976Z,100938.75
2023-06-10T02:20:40.566Z,100946.84
2023-06-10T02:23:07.807Z,100939.94
2023-06-10T02:25:35.140Z,100949.91
2023-06-10T02:28:04.534Z,100950.03
2023-06-10T02:30:32.072Z,100948.34
2023-06-10T02:33:00.400Z,100939.41
2023-06-10T02:35:28.470Z,100946.53
2023-06-10T02:37:55.841Z,100948.22
2023-06-10T02:49:12.679Z,100944.53
2023-06-10T02:51:40.250Z,100939.31
2023-06-10T02:54:07.694Z,100942.94
2023-06-10T02:56:35.003Z,100942.94
2023-06-10T02:59:02.499Z,100943.91
2023-06-10T03:01:33.142Z,100950.25
2023-06-10T03:04:00.808Z,100949.41
2023-06-10T03:06:28.510Z,100945.81
2023-06-10T03:08:55.796Z,100948.44
2023-06-10T03:11:24.008Z,100947.41
2023-06-10T03:13:51.417Z,100956.19
2023-06-10T03:16:19.636Z,100951.84
2023-06-10T03:18:47.161Z,100948.25
2023-06-10T03:21:14.553Z,100944.63
2023-06-10T03:23:41.882Z,100949.84
2023-06-10T03:26:11.069Z,100943.56
2023-06-10T03:28:38.427Z,100952.25
2023-06-10T03:31:05.797Z,100947.06
2023-06-10T03:33:33.624Z,100954.91
2023-06-10T03:36:00.927Z,100960.31
2023-06-10T03:38:28.604Z,100962.75
2023-06-10T03:40:55.799Z,100955.53
2023-06-10T03:43:23.007Z,100963.41
2023-06-10T03:45:50.650Z,100955.53
2023-06-10T03:48:18.436Z,100962.53
2023-06-10T03:50:45.896Z,100964.34
2023-06-10T03:53:13.536Z,100965.28
2023-06-10T03:55:42.097Z,100968.47
2023-06-10T03:58:09.729Z,100973.66
2023-06-10T04:00:42.562Z,100970.78
2023-06-10T04:03:10.710Z,100977.78
2023-06-10T04:05:38.018Z,100969.94
2023-06-10T04:08:06.306Z,100978.53
2023-06-10T04:10:33.681Z,100972.25
2023-06-10T04:13:01.069Z,100979.25
2023-06-10T04:15:28.542Z,100970.34
2023-06-10T04:17:56.430Z,100972.78
2023-06-10T04:20:23.689Z,100973.28
2023-06-10T04:22:51.009Z,100966.72
2023-06-10T04:25:18.475Z,100970.50
2023-06-10T04:27:45.766Z,100975.22
2023-06-10T04:30:14.253Z,100969.69
2023-06-10T04:32:41.472Z,100980.94
2023-06-10T04:35:09.815Z,100975.38
2023-06-10T04:37:37.297Z,100977.19
2023-06-10T04:40:05.440Z,100984.81
2023-06-10T04:42:33.460Z,100989.91
2023-06-10T04:45:00.926Z,100994.88
2023-06-10T04:47:28.506Z,100993.81
2023-06-10T04:49:55.778Z,100989.09
2023-06-10T04:52:23.136Z,100994.97
2023-06-10T04:54:50.407Z,100994.50
2023-06-10T04:57:18.366Z,101003.69
2023-06-10T04:59:45.715Z,101006.75
2023-06-10T05:02:13.261Z,101014.13
2023-06-10T05:04:40.984Z,101008.34
2023-06-10T05:07:08.189Z,101007.03
2023-06-10T05:09:35.896Z,101007.53
2023-06-10T05:12:03.973Z,101011.66
2023-06-10T05:14:31.477Z,101016.50
2023-06-10T05:16:58.744Z,101008.91
2023-06-10T05:19:26.334Z,101013.50
2023-06-10T05:21:53.603Z,101011.00
2023-06-10T05:24:20.902Z,101021.28
2023-06-10T05:26:49.738Z,101017.44
2023-06-10T05:29:17.114Z,101015.16
2023-06-10T05:31:44.403Z,101018.03
2023-06-10T05:34:11.917Z,101013.63
2023-06-10T05:36:39.145Z,101010.91
2023-06-10T05:39:06.716Z,101011.84
2023-06-10T05:41:34.163Z,101016.31
2023-06-10T05:44:02.062Z,101014.66
2023-06-10T05:46:29.703Z,101014.38
2023-06-10T05:48:57.037Z,101012.31
2023-06-10T05:51:24.279Z,101012.97
2023-06-10T05:53:51.591Z,101017.94
2023-06-10T05:56:18.998Z,101015.03
2023-06-10T05:58:46.529Z,101019.97
2023-06-10T06:01:13.808Z,101020.88
2023-06-10T06:03:41.131Z,101022.00
2023-06-10T06:06:08.401Z,101026.78
2023-06-10T06:08:36.009Z,101029.47
2023-06-10T06:11:03.529Z,101029.47
2023-06-10T06:13:30.942Z,101031.84
2023-06-10T06:15:58.743Z,101039.56
2023-06-10T06:18:26.098Z,101033.94
2023-06-10T06:20:53.428Z,101033.91
2023-06-10T06:23:20.983Z,101045.28
2023-06-10T06:25:48.378Z,101045.72
2023-06-10T06:28:15.585Z,101048.66
2023-06-10T06:30:43.281Z,101051.84
2023-06-10T06:33:10.716Z,101049.38
2023-06-10T06:35:39.263Z,101050.28
2023-06-10T06:38:06.580Z,101049.25
2023-06-10T06:40:33.860Z,101054.25
2023-06-10T06:43:01.334Z,101059.03
2023-06-10T06:45:28.635Z,101057.75
2023-06-10T06:47:57.236Z,101057.50
2023-06-10T06:50:24.568Z,101067.09
2023-06-10T06:52:51.747Z,101067.31
2023-06-10T06:55:19.135Z,101064.19
2023-06-10T06:57:46.394Z,101066.03
2023-06-10T07:00:13.898Z,101063.34
2023-06-10T07:02:41.294Z,101064.94
2023-06-10T07:05:09.274Z,101067.63
2023-06-10T07:07:36.891Z,101074.56
2023-06-10T07:10:04.481Z,101070.63
2023-06-10T07:12:32.031Z,101079.97
2023-06-10T07:14:59.246Z,101083.41
2023-06-10T07:17:27.997Z,101078.63
2023-06-10T07:19:58.389Z,101078.78
2023-06-10T07:22:25.649Z,101080.00
2023-06-10T07:24:53.642Z,101081.69
2023-06-10T07:27:20.901Z,101081.69
2023-06-10T07:29:48.530Z,101085.75
2023-06-10T07:32:17.814Z,101091.56
2023-06-10T07:34:47.071Z,101094.75
2023-06-10T07:37:14.388Z,101091.97
2023-06-10T07:39:41.692Z,101096.66
2023-06-10T07:42:09.076Z,101096.41
2023-06-10T07:44:36.420Z,101102.34
2023-06-10T07:47:03.968Z,101096.56
2023-06-10T07:49:31.834Z,101098.63
2023-06-10T07:51:59.075Z,101102.94
2023-06-10T07:54:28.518Z,101101.13
2023-06-10T07:56:57.414Z,101095.59
2023-06-10T07:59:26.738Z,101102.75
2023-06-10T08:01:54.469Z,101094.59
2023-06-10T08:04:21.846Z,101101.63
2023-06-10T08:06:49.241Z,101097.56
2023-06-10T08:09:16.857Z,101099.47
2023-06-10T08:11:44.425Z,101102.69
2023-06-10T08:14:11.691Z,101101.84
2023-06-10T08:16:38.943Z,101103.47
2023-06-10T08:19:06.299Z,101101.25
2023-06-10T08:21:34.615Z,101106.25
2023-06-10T08:24:02.221Z,101110.25
2023-06-10T08:26:29.612Z,101119.16
2023-06-10T08:28:56.837Z,101115.44
2023-06-10T08:31:24.111Z,101114.59
2023-06-10T08:33:51.633Z,101122.03
2023-06-10T08:36:18.928Z,101117.50
2023-06-10T08:38:46.429Z,101119.13
2023-06-10T08:41:15.838Z,101118.66
2023-06-10T08:43:45.589Z,101123.72
2023-06-10T08:46:15.248Z,101124.91
2023-06-10T08:48:45.576Z,101122.50
2023-06-10T08:51:15.188Z,101121.25
2023-06-10T08:53:51.923Z,101125.13
2023-06-10T08:56:19.518Z,101126.25
2023-06-10T08:58:47.768Z,101124.22
2023-06-10T09:01:15.172Z,101131.78
2023-06-10T09:03:42.741Z,101127.50
2023-06-10T09:06:10.306Z,101125.28
2023-06-10T09:08:37.758Z,101127.53
2023-06-10T09:11:05.031Z,101122.41
2023-06-10T09:13:33.281Z,101129.78
2023-06-10T09:16:03.041Z,101127.91
2023-06-10T09:18:31.247Z,101124.38
2023-06-10T09:20:58.814Z,101133.38
2023-06-10T09:23:26.686Z,101133.09
2023-06-10T09:25:58.083Z,101134.81
2023-06-10T09:28:25.778Z,101141.16
2023-06-10T09:31:06.625Z,101139.09
2023-06-10T09:33:34.440Z,101138.91
2023-06-10T09:36:03.510Z,101145.44
2023-06-10T09:38:33.181Z,101145.97
2023-06-10T09:41:02.496Z,101147.69
2023-06-10T09:43:42.763Z,101146.78
2023-06-10T09:46:20.157Z,101140.84
2023-06-10T09:48:49.132Z,101146.78
2023-06-10T09:51:18.312Z,101151.03
2023-06-10T09:53:51.204Z,101145.34
2023-06-10T09:56:18.973Z,101148.78
2023-06-10T09:58:48.088Z,101137.34
2023-06-10T10:01:16.825Z,101144.28
2023-06-10T10:03:49.010Z,101142.63
2023-06-10T10:06:18.280Z,101142.31
2023-06-10T10:08:50.889Z,101136.78
2023-06-10T10:11:19.591Z,101145.19
2023-06-10T10:13:48.968Z,101138.16
2023-06-10T10:16:18.419Z,101138.16
2023-06-10T10:19:09.201Z,101142.69
2023-06-10T10:21:41.132Z,101142.69
2023-06-10T10:24:11.133Z,101137.63
2023-06-10T10:26:39.572Z,101141.16
2023-06-10T10:29:23.797Z,101138.47
2023-06-10T10:31:56.459Z,101140.50
2023-06-10T10:34:32.745Z,101137.47
2023-06-10T10:37:00.181Z,101140.66
2023-06-10T10:39:29.346Z,101142.69
2023-06-10T10:41:57.054Z,101134.44
2023-06-10T10:44:24.799Z,101131.34
2023-06-10T10:46:52.248Z,101127.59
2023-06-10T10:49:19.654Z,101121.50
2023-06-10T10:52:00.023Z,101114.44
2023-06-10T10:54:33.128Z,101107.66
2023-06-10T10:57:13.985Z,101111.94
2023-06-10T10:59:48.226Z,101102.44
2023-06-10T11:02:41.587Z,101108.16
2023-06-10T11:05:10.071Z,101097.66
2023-06-10T11:07:37.827Z,101099.97
2023-06-10T11:10:07.935Z,101090.94
2023-06-10T11:12:55.398Z,101088.66
2023-06-10T11:15:27.875Z,101097.97
2023-06-10T11:18:14.741Z,101093.19
2023-06-10T11:20:50.766Z,101091.38
2023-06-10T11:23:29.983Z,101093.34
2023-06-10T11:26:18.501Z,101093.41
2023-06-10T11:28:48.621Z,101092.03
2023-06-10T11:31:23.440Z,101098.66
2023-06-10T11:33:53.394Z,101087.72
2023-06-10T11:36:20.970Z,101085.38
2023-06-10T11:38:49.510Z,101081.81
2023-06-10T11:41:18.817Z,101083.41
2023-06-10T11:43:49.093Z,101090.91
2023-06-10T11:46:16.627Z,101090.91
2023-06-10T11:48:51.880Z,101096.72
2023-06-10T11:51:19.478Z,101101.47
2023-06-10T11:53:48.226Z,101103.72
2023-06-10T11:56:21.360Z,101109.53
2023-06-10T11:59:06.782Z,101100.13
2023-06-10T12:01:36.185Z,101105.19
2023-06-10T12:04:11.020Z,101100.59
2023-06-10T12:06:49.750Z,101093.69
2023-06-10T12:09:54.594Z,101096.44
2023-06-10T12:12:21.970Z,101095.16
2023-06-10T12:14:56.658Z,101088.47
2023-06-10T12:17:25.238Z,101095.16
2023-06-10T12:19:52.916Z,101094.13
2023-06-10T12:22:20.967Z,101094.88
2023-06-10T12:25:03.105Z,101088.97
2023-06-10T12:27:31.812Z,101087.41
2023-06-10T12:30:05.287Z,101090.03
2023-06-10T12:32:47.127Z,101085.56
2023-06-10T12:35:19.111Z,101084.25
2023-06-10T12:38:08.039Z,101074.97
2023-06-10T12:40:39.008Z,101071.53
2023-06-10T12:43:06.470Z,101073.19
2023-06-10T12:45:35.688Z,101062.44
2023-06-10T12:48:12.879Z,101061.03
2023-06-10T12:50:41.355Z,101057.34
2023-06-10T12:53:09.237Z,101059.44
2023-06-10T12:55:36.612Z,101050.66
2023-06-10T12:58:04.559Z,101052.03
2023-06-10T13:00:32.076Z,101047.56
2023-06-10T13:03:02.285Z,101046.22
2023-06-10T13:05:30.724Z,101046.44
2023-06-10T13:07:59.074Z,101040.78
2023-06-10T13:10:26.936Z,101037.28
2023-06-10T13:12:55.916Z,101044.22
2023-06-10T13:15:23.575Z,101032.75
2023-06-10T13:17:52.319Z,101039.56
2023-06-10T13:20:20.453Z,101036.53
2023-06-10T13:22:48.960Z,101041.16
2023-06-10T13:25:17.238Z,101031.78
2023-06-10T13:27:45.071Z,101031.31
2023-06-10T13:30:12.800Z,101028.59
2023-06-10T13:32:40.350Z,101025.88
2023-06-10T13:35:09.168Z,101028.22
2023-06-10T13:37:37.439Z,101018.97
2023-06-10T13:40:05.840Z,101019.56
2023-06-10T13:42:33.402Z,101028.44
2023-06-10T13:45:00.719Z,101012.72
2023-06-10T13:47:28.014Z,101010.25
2023-06-10T13:49:55.361Z,101008.63
2023-06-10T13:52:22.640Z,101015.16
2023-06-10T13:54:49.889Z,101013.63
2023-06-10T13:57:17.268Z,101010.75
2023-06-10T13:59:44.914Z,101005.28
2023-06-10T14:02:12.286Z,101019.53
2023-06-10T14:04:39.679Z,101017.19
2023-06-10T14:07:06.945Z,101023.56
2023-06-10T14:09:34.467Z,101014.56
2023-06-10T14:12:01.844Z,101006.44
2023-06-10T14:14:29.170Z,101021.03
2023-06-10T14:16:57.093Z,101016.56
2023-06-10T14:19:24.530Z,101014.72
2023-06-10T14:21:51.789Z,101012.38
2023-06-10T14:24:19.443Z,101011.53
2023-06-10T14:26:46.888Z,101011.66
2023-06-10T14:29:15.446Z,101012.38
2023-06-10T14:31:42.962Z,101013.69
2023-06-10T14:34:10.452Z,101014.03
2023-06-10T14:36:38.327Z,101012.84
2023-06-10T14:39:05.836Z,101005.41
2023-06-10T14:41:33.233Z,101006.38
2023-06-10T14:44:00.405Z,101000.72
2023-06-10T14:46:27.709Z,101002.94
2023-06-10T14:48:55.013Z,101002.81
2023-06-10T14:51:22.395Z,101004.28
2023-06-10T14:53:49.950Z,101006.34
2023-06-10T14:56:17.345Z,101004.47
2023-06-10T14:58:44.822Z,101007.72
2023-06-10T15:01:12.048Z,101006.38
2023-06-10T15:03:39.328Z,101007.84
2023-06-10T15:06:06.572Z,101012.22
2023-06-10T15:08:34.342Z,101009.78
2023-06-10T15:11:04.154Z,101000.88
2023-06-10T15:13:31.568Z,101008.06
2023-06-10T15:16:01.032Z,101007.41
2023-06-10T15:18:30.744Z,101006.88
2023-06-10T15:20:58.026Z,100993.84
2023-06-10T15:23:25.745Z,100997.03
2023-06-10T15:25:53.000Z,101010.81
2023-06-10T15:28:20.328Z,101003.19
2023-06-10T15:30:49.747Z,101001.81
2023-06-10T15:33:17.029Z,101012.81
2023-06-10T15:35:44.623Z,101006.34
2023-06-10T15:38:12.051Z,101005.41
2023-06-10T15:40:41.995Z,101001.34
2023-06-10T15:43:09.210Z,100990.44
2023-06-10T15:45:36.502Z,100991.56
2023-06-10T15:48:04.358Z,100989.53
2023-06-10T15:50:31.959Z,100982.69
2023-06-10T15:52:59.487Z,100990.44
2023-06-10T15:55:27.589Z,100989.19
2023-06-10T15:57:55.350Z,100983.69
2023-06-10T16:00:22.685Z,100981.78
2023-06-10T16:02:50.001Z,100979.50
2023-06-10T16:05:17.520Z,100980.38
2023-06-10T16:07:44.976Z,100987.69
2023-06-10T16:10:12.218Z,100987.16
2023-06-10T16:12:39.477Z,100992.38
2023-06-10T16:15:07.802Z,100990.34
2023-06-10T16:17:35.404Z,100997.06
2023-06-10T16:20:02.878Z,100990.69
2023-06-10T16:22:30.198Z,100984.88
2023-06-10T16:24:57.454Z,100978.72
2023-06-10T16:27:26.463Z,100982.44
2023-06-10T16:29:54.267Z,100984.91
2023-06-10T16:32:21.584Z,100978.16
2023-06-10T16:34:49.460Z,100983.78
2023-06-10T16:37:17.164Z,100976.34
2023-06-10T16:39:44.483Z,100973.94
2023-06-10T16:42:11.691Z,100970.91
2023-06-10T16:44:38.934Z,100975.06
2023-06-10T16:47:06.478Z,100976.13
2023-06-10T16:49:35.437Z,100964.81
2023-06-10T16:52:03.282Z,100969.97
2023-06-10T16:54:30.604Z,100977.75
2023-06-10T16:56:58.009Z,100981.28
2023-06-10T16:59:25.275Z,100980.63
2023-06-10T17:01:52.593Z,100970.47
2023-06-10T17:04:19.902Z,100980.56
2023-06-10T17:06:47.298Z,100972.34
2023-06-10T17:09:14.559Z,100976.50
2023-06-10T17:11:41.826Z,100985.00
2023-06-10T17:14:09.100Z,100986.09
2023-06-10T17:16:36.670Z,100980.31
2023-06-10T17:19:04.117Z,100977.63
2023-06-10T17:21:31.730Z,100979.28
2023-06-10T17:23:59.196Z,100980.13
2023-06-10T17:26:27.962Z,100986.38
2023-06-10T17:28:55.524Z,100990.25
2023-06-10T17:31:22.793Z,100998.97
2023-06-10T17:33:50.175Z,100992.28
2023-06-10T17:36:19.140Z,100997.88
2023-06-10T17:38:46.525Z,100997.22
2023-06-10T17:41:13.946Z,101002.63
2023-06-10T17:43:43.069Z,101000.44
2023-06-10T17:46:12.606Z,100999.94
2023-06-10T17:48:39.881Z,101010.53
2023-06-10T17:51:07.034Z,101009.59
2023-06-10T17:53:35.097Z,101012.19
2023-06-10T17:56:02.829Z,101011.69
2023-06-10T17:58:30.043Z,101011.63
2023-06-10T18:01:01.669Z,101012.34
2023-06-10T18:03:30.054Z,101008.78
2023-06-10T18:06:07.038Z,101010.78
2023-06-10T18:08:39.200Z,101017.97
2023-06-10T18:11:06.537Z,101012.03
2023-06-10T18:13:34.413Z,101021.22
2023-06-10T18:16:01.689Z,101012.41
2023-06-10T18:18:29.703Z,101012.53
2023-06-10T18:20:57.575Z,101012.63
2023-06-10T18:23:25.885Z,101025.22
2023-06-10T18:25:53.120Z,101029.53
2023-06-10T18:28:20.402Z,101034.34
2023-06-10T18:30:47.909Z,101027.09
2023-06-10T18:33:15.378Z,101027.19
2023-06-10T18:35:42.661Z,101029.34
2023-06-10T18:38:10.286Z,101036.88
2023-06-10T18:40:37.493Z,101035.47
2023-06-10T18:43:05.229Z,101042.13
2023-06-10T18:45:32.593Z,101039.03
2023-06-10T18:48:00.217Z,101052.59
2023-06-10T18:50:27.821Z,101049.97
2023-06-10T18:52:55.017Z,101051.88
2023-06-10T18:55:22.291Z,101051.31
2023-06-10T18:57:50.182Z,101063.16
2023-06-10T19:00:17.856Z,101063.19
2023-06-10T19:02:45.384Z,101067.78
2023-06-10T19:05:14.335Z,101071.75
2023-06-10T19:07:41.591Z,101075.50
2023-06-10T19:10:09.180Z,101072.84
2023-06-10T19:12:36.433Z,101072.22
2023-06-10T19:15:04.545Z,101079.50
2023-06-10T19:17:32.234Z,101086.78
2023-06-10T19:19:59.597Z,101086.25
2023-06-10T19:22:26.881Z,101084.47
2023-06-10T19:25:04.454Z,101093.38
2023-06-10T19:27:31.920Z,101098.59
2023-06-10T19:29:59.427Z,101103.66
2023-06-10T19:32:27.699Z,101103.34
2023-06-10T19:34:55.027Z,101113.78
2023-06-10T19:37:22.297Z,101115.13
2023-06-10T19:39:49.894Z,101112.78
2023-06-10T19:42:17.188Z,101113.47
2023-06-10T19:44:45.410Z,101111.44
2023-06-10T19:47:12.754Z,101117.47
2023-06-10T19:49:40.010Z,101111.09
2023-06-10T19:52:08.038Z,101110.06
2023-06-10T19:54:36.673Z,101121.31
2023-06-10T19:57:04.627Z,101119.50
2023-06-10T19:59:33.920Z,101123.84
2023-06-10T20:02:04.200Z,101128.34
2023-06-10T20:04:46.774Z,101129.03
2023-06-10T20:07:20.265Z,101137.91
2023-06-10T20:09:48.093Z,101142.59
2023-06-10T20:12:15.374Z,101137.16
2023-06-10T20:14:42.589Z,101140.13
2023-06-10T20:17:09.845Z,101146.31
2023-06-10T20:19:37.004Z,101154.66
2023-06-10T20:22:05.167Z,101148.38
2023-06-10T20:24:32.823Z,101156.78
2023-06-10T20:27:00.516Z,101162.63
2023-06-10T20:29:27.838Z,101161.56
2023-06-10T20:31:55.132Z,101156.84
2023-06-10T20:34:23.029Z,101162.69
2023-06-10T20:36:50.365Z,101165.84
2023-06-10T20:39:19.143Z,101169.13
2023-06-10T20:41:46.637Z,101175.28
2023-06-10T20:44:14.882Z,101175.06
2023-06-10T20:46:42.223Z,101170.31
2023-06-10T20:49:09.994Z,101174.63
2023-06-10T20:51:38.786Z,101174.25
2023-06-10T20:54:06.150Z,101182.09
2023-06-10T20:56:33.533Z,101184.50
2023-06-10T20:59:01.091Z,101183.59
2023-06-10T21:01:28.677Z,101181.38
2023-06-10T21:03:56.161Z,101179.44
2023-06-10T21:06:23.940Z,101187.94
2023-06-10T21:08:52.376Z,101185.69
2023-06-10T21:11:20.012Z,101200.38
2023-06-10T21:13:47.372Z,101197.88
2023-06-10T21:16:14.795Z,101198.16
2023-06-10T21:18:42.342Z,101216.53
2023-06-10T21:21:09.768Z,101207.94
2023-06-10T21:23:37.055Z,101215.75
2023-06-10T21:26:06.513Z,101213.81
2023-06-10T21:28:34.578Z,101210.06
2023-06-10T21:31:03.632Z,101216.84
2023-06-10T21:33:31.136Z,101221.78
2023-06-10T21:35:58.668Z,101218.59
2023-06-10T21:38:26.437Z,101218.88
2023-06-10T21:40:55.412Z,101224.69
2023-06-10T21:43:22.640Z,101227.78
2023-06-10T21:49:30.972Z,101230.91
2023-06-10T21:51:58.381Z,101236.00
2023-06-10T21:54:25.691Z,101237.41
2023-06-10T21:56:52.949Z,101239.53
2023-06-10T21:59:23.552Z,101235.59
2023-06-10T22:01:50.845Z,101236.19
2023-06-10T22:04:18.548Z,101239.28
2023-06-10T22:06:47.055Z,101234.66
2023-06-10T22:09:14.317Z,101241.41
2023-06-10T22:11:41.658Z,101243.66
2023-06-10T22:14:08.903Z,101248.72
2023-06-10T22:16:36.159Z,101245.63
2023-06-10T22:19:03.735Z,101240.84
2023-06-10T22:21:31.440Z,101243.81
2023-06-10T22:23:58.825Z,101252.25
2023-06-10T22:26:36.865Z,101247.44
2023-06-10T22:29:11.120Z,101235.59
2023-06-10T22:31:38.413Z,101237.84
2023-06-10T22:34:05.646Z,101231.09
2023-06-10T22:36:32.997Z,101242.06
2023-06-10T22:39:00.394Z,101240.63
2023-06-10T22:41:27.926Z,101249.78
2023-06-10T22:43:55.266Z,101231.19
2023-06-10T22:46:22.508Z,101241.88
2023-06-10T22:48:50.299Z,101230.50
2023-06-10T22:51:17.873Z,101234.00
2023-06-10T22:53:45.122Z,101246.94
2023-06-10T22:56:12.416Z,101238.50
2023-06-10T22:58:39.606Z,101240.59
2023-06-10T23:01:06.855Z,101245.22
2023-06-10T23:03:34.519Z,101235.22
2023-06-10T23:06:02.148Z,101229.47
2023-06-10T23:08:29.442Z,101243.22
2023-06-10T23:10:56.778Z,101238.41
2023-06-10T23:13:24.031Z,101232.47
2023-06-10T23:15:51.225Z,101238.38
2023-06-10T23:18:18.509Z,101240.34
2023-06-10T23:20:47.655Z,101242.28
2023-06-10T23:23:16.119Z,101243.53
2023-06-10T23:25:45.750Z,101242.94
2023-06-10T23:28:13.189Z,101240.53
2023-06-10T23:30:40.694Z,101248.94
2023-06-10T23:33:08.391Z,101251.03
2023-06-10T23:35:35.775Z,101249.59
2023-06-10T23:38:03.121Z,101254.94
2023-06-10T23:40:30.722Z,101250.84
2023-06-10T23:42:58.028Z,101255.59
2023-06-10T23:45:25.313Z,101262.31
2023-06-10T23:47:53.665Z,101258.19
2023-06-10T23:50:20.909Z,101264.53
2023-06-10T23:52:49.750Z,101265.06
2023-06-10T23:55:17.225Z,101258.28
2023-06-10T23:57:44.736Z,101261.34
